Time;durP1;ratioP1;P1;durP2;ratioP2;P2;SDS_P1;SDS_P2;PMS_P1;PMS_P2;Temp;Humidity;BMP_temperature;BMP_pressure;BME280_temperature;BME280_humidity;BME280_pressure;Samples;Min_cycle;Max_cycle;Signal;HPM_P1;HPM_P2
2021/12/28 00:01:46;;;;;;;18.58;6.93;;;;;;;7.09;92.47;93997.47;5012364;28;20219;-75
2021/12/28 00:04:13;;;;;;;18.95;8.27;;;;;;;7.09;92.43;93996.69;5011899;28;20205;-75
2021/12/28 00:06:40;;;;;;;14.63;7.75;;;;;;;7.19;92.31;94007.09;5011176;28;20576;-75
2021/12/28 00:09:08;;;;;;;12.40;6.63;;;;;;;7.23;92.01;93996.47;5011326;28;20212;-75
2021/12/28 00:11:35;;;;;;;14.80;7.60;;;;;;;7.25;91.87;94005.78;5012364;28;20201;-74
2021/12/28 00:14:04;;;;;;;11.45;6.90;;;;;;;7.32;91.63;94005.31;5011133;28;20562;-75
2021/12/28 00:17:58;;;;;;;15.35;7.72;;;;;;;7.38;91.42;94009.44;5011842;28;20670;-76
2021/12/28 00:19:20;;;;;;;14.63;7.75;;;;;;;7.32;91.66;94010.69;5011290;28;20194;-76
2021/12/28 00:21:47;;;;;;;13.10;7.60;;;;;;;7.13;91.91;94009.16;5011864;28;20335;-75
2021/12/28 00:24:14;;;;;;;14.48;6.90;;;;;;;7.25;91.91;94005.00;5011362;28;20201;-75
2021/12/28 00:26:41;;;;;;;17.73;8.40;;;;;;;7.25;91.67;94010.38;5011972;28;20554;-75
2021/12/28 00:29:08;;;;;;;12.77;6.70;;;;;;;7.36;91.29;94006.25;5011431;28;20212;-75
2021/12/28 00:31:37;;;;;;;10.43;7.00;;;;;;;7.39;90.81;94008.28;5011852;28;20201;-75
2021/12/28 00:34:04;;;;;;;11.52;5.85;;;;;;;7.42;91.02;94015.72;5011411;28;20213;-75
2021/12/28 00:36:31;;;;;;;11.20;7.70;;;;;;;7.45;90.86;94020.47;5011367;28;20225;-75
2021/12/28 00:39:00;;;;;;;16.02;5.85;;;;;;;7.38;90.71;94018.28;5011463;28;20201;-75
2021/12/28 00:41:27;;;;;;;14.20;7.15;;;;;;;7.46;90.85;94024.75;5011434;28;20224;-75
2021/12/28 00:43:54;;;;;;;15.52;6.68;;;;;;;7.52;90.32;94007.28;5010608;28;20212;-75
2021/12/28 00:46:21;;;;;;;14.35;6.70;;;;;;;7.54;89.92;94005.06;5011283;28;20212;-75
2021/12/28 00:48:49;;;;;;;9.85;5.88;;;;;;;7.57;89.87;94000.94;5011002;28;20235;-76
2021/12/28 00:51:16;;;;;;;9.98;5.63;;;;;;;7.51;90.22;94007.63;5011404;28;20208;-75
2021/12/28 00:53:43;;;;;;;11.70;6.13;;;;;;;7.52;90.09;94001.91;5011281;28;20225;-75
2021/12/28 00:56:10;;;;;;;12.02;6.00;;;;;;;7.43;89.96;93996.56;5011046;28;20205;-75
2021/12/28 00:58:37;;;;;;;12.05;6.18;;;;;;;7.42;90.14;93999.56;5010953;28;20201;-75
2021/12/28 01:01:04;;;;;;;11.85;6.95;;;;;;;7.52;90.19;93999.19;5011046;28;20802;-75
2021/12/28 01:03:34;;;;;;;10.15;5.78;;;;;;;7.45;90.11;93988.16;5011328;28;20626;-75
2021/12/28 01:06:02;;;;;;;14.32;6.40;;;;;;;7.51;89.99;94000.34;5011158;28;20229;-75
2021/12/28 01:08:29;;;;;;;10.20;6.15;;;;;;;7.40;90.29;94007.19;5010320;28;20239;-75
2021/12/28 01:10:57;;;;;;;11.55;6.15;;;;;;;7.45;90.26;94009.72;5011044;28;20208;-75
2021/12/28 01:13:26;;;;;;;9.05;5.80;;;;;;;7.55;90.00;94009.34;5010635;28;20197;-74
2021/12/28 01:15:54;;;;;;;11.50;6.32;;;;;;;7.52;89.66;94012.69;5010473;28;20201;-76
2021/12/28 01:18:22;;;;;;;11.55;6.00;;;;;;;7.55;89.55;94008.56;5010667;28;20197;-74
2021/12/28 01:20:49;;;;;;;11.27;6.72;;;;;;;7.50;89.22;94012.22;5010972;28;20252;-75
2021/12/28 01:23:18;;;;;;;9.25;5.55;;;;;;;7.50;89.19;93998.75;5010525;28;20607;-75
2021/12/28 01:25:45;;;;;;;11.60;6.55;;;;;;;7.45;89.01;94001.63;5010298;28;20664;-75
2021/12/28 01:28:13;;;;;;;8.73;5.75;;;;;;;7.27;90.08;94006.28;5010669;28;20566;-75
2021/12/28 01:30:41;;;;;;;13.27;5.82;;;;;;;7.27;90.50;94008.16;5010657;28;20548;-75
2021/12/28 01:33:08;;;;;;;13.23;6.82;;;;;;;7.30;90.53;94004.84;5010365;28;20651;-75
2021/12/28 01:35:36;;;;;;;10.20;5.55;;;;;;;7.35;90.26;93999.28;5010213;28;20205;-75
2021/12/28 01:38:03;;;;;;;12.55;6.20;;;;;;;7.42;89.88;93994.97;5009579;28;20217;-75
2021/12/28 01:40:36;;;;;;;67.32;24.88;;;;;;;7.46;89.69;94000.50;5009933;28;20216;-75
2021/12/28 01:43:11;;;;;;;14.65;7.80;;;;;;;7.56;89.67;94010.13;5010279;28;20643;-75
2021/12/28 01:45:44;;;;;;;13.18;6.35;;;;;;;7.43;89.38;94001.16;5010056;28;20196;-75
2021/12/28 01:48:14;;;;;;;14.23;7.60;;;;;;;7.46;89.27;94009.38;5010098;28;20526;-75
2021/12/28 01:50:42;;;;;;;18.42;8.73;;;;;;;7.38;90.04;94004.03;5010037;28;20406;-74
2021/12/28 01:53:10;;;;;;;13.70;7.30;;;;;;;7.27;90.08;94008.16;5009146;28;20724;-74
2021/12/28 01:55:41;;;;;;;11.38;7.07;;;;;;;7.11;90.87;94006.00;5008847;28;20205;-74
2021/12/28 01:58:08;;;;;;;11.90;7.68;;;;;;;7.05;91.28;94004.59;5009806;28;20201;-75
2021/12/28 02:00:36;;;;;;;16.15;9.68;;;;;;;7.09;90.99;94002.06;5009911;28;20296;-74
2021/12/28 02:03:07;;;;;;;15.60;6.93;;;;;;;7.09;90.87;93992.09;5009857;28;20217;-74
2021/12/28 02:05:34;;;;;;;13.30;7.43;;;;;;;7.04;91.34;93994.94;5009707;28;20204;-75
2021/12/28 02:08:01;;;;;;;12.80;7.15;;;;;;;7.09;91.49;93997.47;5009377;28;20711;-74
2021/12/28 02:10:29;;;;;;;14.35;6.65;;;;;;;6.94;91.88;93989.09;5009220;28;20209;-74
2021/12/28 02:12:57;;;;;;;10.77;6.57;;;;;;;6.99;92.11;93997.78;5009924;28;20201;-74
2021/12/28 02:15:24;;;;;;;12.73;6.40;;;;;;;6.99;91.34;93991.59;5009744;28;20208;-74
2021/12/28 02:17:51;;;;;;;6.32;3.75;;;;;;;6.94;91.56;93987.22;5009116;28;20207;-74
2021/12/28 02:20:21;;;;;;;13.02;6.25;;;;;;;7.01;91.64;93986.69;5009103;28;20208;-76
2021/12/28 02:22:48;;;;;;;10.88;7.07;;;;;;;7.07;91.76;93998.91;4989517;28;20201;-73
2021/12/28 02:25:18;;;;;;;10.25;6.47;;;;;;;7.07;91.86;93999.69;4989976;28;20220;-75
2021/12/28 02:27:45;;;;;;;12.13;6.70;;;;;;;7.18;91.87;94005.50;4989790;28;20844;-75
2021/12/28 02:30:15;;;;;;;13.20;6.47;;;;;;;7.04;91.20;93994.94;4990092;28;20661;-75
2021/12/28 02:32:43;;;;;;;12.35;7.60;;;;;;;7.03;91.53;93987.97;4989387;28;20205;-75
2021/12/28 02:35:13;;;;;;;11.82;7.28;;;;;;;7.10;91.72;93985.59;4989341;28;20206;-75
2021/12/28 02:37:42;;;;;;;11.73;6.70;;;;;;;7.12;91.38;93994.13;4989580;28;20229;-75
2021/12/28 02:40:12;;;;;;;11.98;6.80;;;;;;;7.09;91.34;93978.63;4989561;28;20206;-75
2021/12/28 02:42:40;;;;;;;11.73;6.78;;;;;;;7.07;91.33;93983.53;4989508;28;20296;-75
2021/12/28 02:45:10;;;;;;;10.80;6.13;;;;;;;7.12;91.16;93982.53;4989725;28;20206;-75
2021/12/28 02:47:38;;;;;;;11.18;6.40;;;;;;;7.21;91.24;93987.94;4989588;28;20261;-75
2021/12/28 02:50:08;;;;;;;12.85;5.95;;;;;;;7.24;91.20;93987.28;4989489;28;20218;-75
2021/12/28 02:52:37;;;;;;;11.90;5.57;;;;;;;7.34;90.82;93997.72;4989797;28;20655;-75
2021/12/28 02:55:06;;;;;;;10.32;6.15;;;;;;;7.30;90.33;93988.69;4989865;28;20312;-75
2021/12/28 02:57:33;;;;;;;13.93;7.28;;;;;;;7.31;90.16;93992.97;4990615;28;20264;-75
2021/12/28 03:00:00;;;;;;;14.52;6.20;;;;;;;7.24;90.80;93998.06;5009339;28;20205;-74
2021/12/28 03:02:28;;;;;;;14.27;6.68;;;;;;;7.14;91.15;94002.66;5009407;28;20201;-74
2021/12/28 03:04:54;;;;;;;13.85;7.28;;;;;;;7.25;91.34;93999.63;5009330;28;20235;-74
2021/12/28 03:07:22;;;;;;;13.63;6.97;;;;;;;7.26;90.77;93990.44;5009345;28;20197;-74
2021/12/28 03:09:49;;;;;;;18.90;10.05;;;;;;;7.11;91.08;93995.22;5012129;28;20201;-74
2021/12/28 03:12:18;;;;;;;16.52;7.80;;;;;;;7.17;91.18;94003.13;5013190;28;20193;-74
2021/12/28 03:14:49;;;;;;;14.38;8.27;;;;;;;7.08;90.91;94003.97;5013119;28;20205;-74
2021/12/28 03:17:16;;;;;;;15.65;6.57;;;;;;;7.07;91.16;93999.69;5013173;28;20525;-75
2021/12/28 03:19:43;;;;;;;15.40;7.18;;;;;;;7.05;91.21;94001.91;5012584;28;20209;-74
2021/12/28 03:22:10;;;;;;;17.02;7.47;;;;;;;6.92;91.43;94000.19;5012942;28;20224;-74
2021/12/28 03:24:37;;;;;;;13.75;6.70;;;;;;;6.95;91.78;94010.31;5012584;28;20208;-74
2021/12/28 03:27:04;;;;;;;13.75;6.82;;;;;;;6.84;91.70;93990.22;5012516;28;20247;-74
2021/12/28 03:29:32;;;;;;;14.27;7.25;;;;;;;6.88;92.24;93999.25;5012994;28;20229;-74
2021/12/28 03:31:59;;;;;;;10.52;6.35;;;;;;;6.93;92.23;93999.09;5012534;28;20260;-74
2021/12/28 03:34:26;;;;;;;14.98;8.20;;;;;;;6.99;92.07;93997.00;5012823;28;20571;-74
2021/12/28 03:36:53;;;;;;;11.95;6.82;;;;;;;7.00;91.94;93993.19;5012530;28;20256;-74
2021/12/28 03:39:20;;;;;;;13.30;8.18;;;;;;;6.93;92.25;93991.00;5012476;28;20232;-74
2021/12/28 03:41:47;;;;;;;15.05;8.40;;;;;;;6.88;92.27;93990.38;5011891;28;20647;-74
2021/12/28 03:44:15;;;;;;;22.85;12.10;;;;;;;6.97;92.09;93989.22;5012567;28;20216;-75
2021/12/28 03:46:43;;;;;;;15.77;7.47;;;;;;;7.01;92.18;93987.50;5012473;28;20664;-74
2021/12/28 03:49:10;;;;;;;12.68;6.45;;;;;;;7.03;91.87;93989.88;5011957;28;20603;-73
2021/12/28 03:51:37;;;;;;;13.93;7.60;;;;;;;6.96;92.02;93990.38;5011876;28;20213;-76
2021/12/28 03:54:04;;;;;;;13.30;7.45;;;;;;;6.90;92.28;93999.72;5012429;28;20584;-73
2021/12/28 03:56:31;;;;;;;12.85;7.63;;;;;;;6.82;92.12;93997.84;5012068;28;20213;-73
2021/12/28 03:58:58;;;;;;;17.13;7.50;;;;;;;6.87;92.18;93997.66;5012178;28;20200;-75
2021/12/28 04:01:27;;;;;;;17.40;7.22;;;;;;;6.79;92.08;93993.09;5012166;28;20635;-74
2021/12/28 04:03:56;;;;;;;12.05;6.82;;;;;;;6.64;92.56;93982.81;5012281;28;20229;-75
2021/12/28 04:06:23;;;;;;;13.60;7.45;;;;;;;6.65;93.19;94005.94;5012481;28;20201;-74
2021/12/28 04:08:50;;;;;;;14.00;7.85;;;;;;;6.60;93.57;94000.69;5011823;28;20225;-74
2021/12/28 04:11:26;;;;;;;13.82;7.78;;;;;;;6.62;93.29;94003.88;5012075;28;20201;-74
2021/12/28 04:13:55;;;;;;;13.05;6.63;;;;;;;6.60;93.57;94006.06;5011685;28;20276;-74
2021/12/28 04:16:22;;;;;;;15.38;7.53;;;;;;;6.69;93.22;94006.88;5012024;28;20271;-75
2021/12/28 04:18:50;;;;;;;12.48;7.03;;;;;;;6.67;93.28;94006.41;5011023;28;20209;-74
2021/12/28 04:21:19;;;;;;;15.93;8.75;;;;;;;6.54;93.45;93996.59;5010880;28;20307;-74
2021/12/28 04:23:47;;;;;;;16.08;6.80;;;;;;;6.65;93.58;94011.31;5011109;28;20209;-74
2021/12/28 04:26:14;;;;;;;13.45;7.25;;;;;;;6.70;93.20;94011.13;5011761;28;20197;-74
2021/12/28 04:28:42;;;;;;;13.35;7.68;;;;;;;6.72;92.76;94014.28;5011680;28;20236;-74
2021/12/28 04:31:09;;;;;;;11.88;7.53;;;;;;;6.50;92.40;94003.72;5011475;28;20213;-75
2021/12/28 04:33:37;;;;;;;11.60;6.50;;;;;;;6.58;92.68;94016.38;5010596;28;20612;-75
2021/12/28 04:36:07;;;;;;;10.93;6.13;;;;;;;6.54;92.45;94012.75;5010899;28;20217;-74
2021/12/28 04:38:36;;;;;;;8.30;5.55;;;;;;;6.39;92.61;94016.69;5011219;28;20201;-74
2021/12/28 04:41:03;;;;;;;15.02;7.15;;;;;;;6.35;93.56;94021.91;5011309;28;20239;-74
2021/12/28 04:43:31;;;;;;;10.55;6.88;;;;;;;6.36;93.77;94025.38;5010832;28;20901;-74
2021/12/28 04:45:58;;;;;;;11.05;6.78;;;;;;;6.38;93.42;94031.25;5011213;28;20216;-74
2021/12/28 04:48:25;;;;;;;13.18;7.47;;;;;;;6.27;93.51;94030.78;5011265;28;20639;-75
2021/12/28 04:50:52;;;;;;;13.35;6.82;;;;;;;6.33;93.66;94029.50;5010877;28;20224;-75
2021/12/28 04:53:19;;;;;;;11.07;6.80;;;;;;;6.33;93.46;94028.69;5010915;28;20473;-74
2021/12/28 04:55:50;;;;;;;12.77;7.05;;;;;;;6.31;93.52;94023.63;5010986;28;20212;-75
2021/12/28 04:58:17;;;;;;;16.15;9.80;;;;;;;6.24;93.88;94031.41;5010981;28;20436;-74
2021/12/28 05:00:45;;;;;;;15.32;7.35;;;;;;;6.33;93.53;94021.44;5010058;28;20201;-74
2021/12/28 05:03:13;;;;;;;10.48;6.78;;;;;;;6.33;93.39;94017.94;5010417;28;20209;-74
2021/12/28 05:05:43;;;;;;;21.17;7.28;;;;;;;6.50;93.03;94006.41;5010610;28;20668;-74
2021/12/28 05:08:10;;;;;;;16.35;7.25;;;;;;;6.41;92.85;94015.28;5010927;28;20633;-74
2021/12/28 05:10:37;;;;;;;9.38;5.78;;;;;;;6.35;92.91;94021.91;5010612;28;20212;-74
2021/12/28 05:13:06;;;;;;;12.23;6.95;;;;;;;6.31;92.95;94025.53;5010222;28;20652;-74
2021/12/28 05:15:33;;;;;;;12.50;7.05;;;;;;;6.42;93.06;94013.38;5009797;28;20248;-73
2021/12/28 05:18:00;;;;;;;9.20;4.82;;;;;;;6.41;93.66;94014.47;5010460;28;20201;-73
2021/12/28 05:20:28;;;;;;;12.60;7.05;;;;;;;6.44;93.47;94013.84;5010268;28;20668;-74
2021/12/28 05:22:55;;;;;;;10.65;6.88;;;;;;;6.36;93.39;94012.72;5010228;28;20595;-74
2021/12/28 05:25:22;;;;;;;12.93;7.50;;;;;;;6.30;93.70;94013.97;5010326;28;20201;-74
2021/12/28 05:27:49;;;;;;;16.45;6.05;;;;;;;6.35;93.73;94013.03;5010209;28;20209;-75
2021/12/28 05:30:17;;;;;;;15.23;7.28;;;;;;;6.34;93.82;94019.53;5009880;28;20600;-75
2021/12/28 05:32:44;;;;;;;12.60;7.90;;;;;;;6.32;94.01;94021.75;5009984;28;20739;-74
2021/12/28 05:35:11;;;;;;;18.00;8.05;;;;;;;6.31;94.25;94020.16;5010416;28;20205;-74
2021/12/28 05:37:39;;;;;;;15.05;7.57;;;;;;;6.32;94.29;94022.53;5010199;28;20235;-74
2021/12/28 05:40:08;;;;;;;16.63;7.32;;;;;;;6.30;94.12;94016.66;5010004;28;20212;-74
2021/12/28 05:42:36;;;;;;;14.32;7.85;;;;;;;6.12;93.81;94027.75;5010036;28;20232;-74
2021/12/28 05:45:03;;;;;;;13.85;8.40;;;;;;;5.92;94.85;94047.94;5009742;28;20212;-73
2021/12/28 05:47:32;;;;;;;13.93;7.97;;;;;;;5.85;95.41;94044.88;5010262;28;20502;-74
2021/12/28 05:49:59;;;;;;;13.07;7.35;;;;;;;5.92;95.23;94027.22;5010234;28;20287;-74
2021/12/28 05:52:26;;;;;;;16.27;8.77;;;;;;;6.02;95.51;94023.44;5010159;28;20327;-74
2021/12/28 05:54:53;;;;;;;12.77;7.00;;;;;;;6.24;95.54;94030.59;5009567;28;20208;-75
2021/12/28 05:57:20;;;;;;;14.13;7.80;;;;;;;6.25;95.16;94035.66;5010086;28;20204;-74
2021/12/28 05:59:47;;;;;;;14.65;7.60;;;;;;;6.26;94.62;94029.19;5009757;28;20201;-74
2021/12/28 06:02:14;;;;;;;13.57;7.55;;;;;;;6.30;94.73;94045.47;5009920;28;20205;-75
2021/12/28 06:04:42;;;;;;;12.20;7.53;;;;;;;6.18;93.95;94040.72;5010144;28;20718;-74
2021/12/28 06:07:09;;;;;;;13.32;7.57;;;;;;;6.33;93.40;94040.25;5010225;28;20204;-74
2021/12/28 06:09:36;;;;;;;13.90;7.55;;;;;;;6.29;93.26;94033.91;5009772;28;20232;-74
2021/12/28 06:12:03;;;;;;;14.70;8.63;;;;;;;6.29;93.08;94039.28;5009991;28;20205;-74
2021/12/28 06:14:30;;;;;;;13.10;7.50;;;;;;;6.36;92.70;94030.78;5009548;28;20661;-74
2021/12/28 06:16:57;;;;;;;12.57;7.30;;;;;;;6.48;92.82;94036.31;5009462;28;20205;-74
2021/12/28 06:19:24;;;;;;;17.35;9.43;;;;;;;6.45;92.44;94025.38;5009926;28;20208;-74
2021/12/28 06:21:52;;;;;;;15.13;8.43;;;;;;;6.52;92.27;94037.28;5009463;28;20612;-74
2021/12/28 06:24:19;;;;;;;18.48;9.10;;;;;;;6.73;91.56;94040.09;5009326;28;20201;-74
2021/12/28 06:26:46;;;;;;;17.75;8.52;;;;;;;6.77;91.69;94038.38;5009628;28;20466;-74
2021/12/28 06:29:15;;;;;;;19.25;9.48;;;;;;;6.71;91.30;94039.63;5009371;28;20545;-74
2021/12/28 06:31:42;;;;;;;13.32;7.90;;;;;;;6.58;91.31;94032.50;5009532;28;20210;-75
2021/12/28 06:34:09;;;;;;;14.80;8.18;;;;;;;6.39;92.08;94044.38;5009584;28;20223;-75
2021/12/28 06:36:37;;;;;;;16.70;9.55;;;;;;;6.34;92.27;94031.09;5009242;28;20235;-74
2021/12/28 06:39:06;;;;;;;29.75;16.17;;;;;;;6.28;92.80;94043.13;5009400;28;20567;-74
2021/12/28 06:41:34;;;;;;;16.00;9.70;;;;;;;6.33;92.66;94039.47;5008999;28;20229;-74
2021/12/28 06:44:00;;;;;;;19.15;10.02;;;;;;;6.41;92.92;94049.44;5009419;28;20280;-74
2021/12/28 06:46:27;;;;;;;17.48;9.90;;;;;;;6.43;92.69;94048.00;5009471;28;20561;-74
2021/12/28 06:48:54;;;;;;;21.38;10.35;;;;;;;6.32;92.68;94046.75;5008924;28;20387;-75
2021/12/28 06:51:21;;;;;;;18.50;10.48;;;;;;;6.50;93.08;94052.13;5009403;28;20569;-73
2021/12/28 06:53:48;;;;;;;23.08;15.10;;;;;;;6.60;92.42;94060.69;5009213;28;20245;-74
2021/12/28 06:56:16;;;;;;;23.90;14.85;;;;;;;6.70;91.96;94054.19;5008989;28;20259;-74
2021/12/28 06:58:43;;;;;;;18.48;10.93;;;;;;;6.90;92.01;94058.16;5009265;28;20549;-74
2021/12/28 07:01:10;;;;;;;23.30;10.43;;;;;;;7.03;91.32;94057.19;5008716;28;20209;-75
2021/12/28 07:03:37;;;;;;;17.08;10.32;;;;;;;7.31;90.74;94065.69;5008846;28;20623;-73
2021/12/28 07:06:06;;;;;;;20.67;10.50;;;;;;;7.68;89.88;94070.31;5009248;28;20255;-74
2021/12/28 07:08:34;;;;;;;18.73;10.13;;;;;;;7.80;88.41;94070.44;5009024;28;20713;-74
2021/12/28 07:11:00;;;;;;;16.58;9.57;;;;;;;8.17;88.30;94068.06;5008990;28;20291;-73
2021/12/28 07:13:29;;;;;;;17.33;10.70;;;;;;;8.42;87.23;94069.06;5009071;28;20194;-74
2021/12/28 07:15:56;;;;;;;23.65;10.98;;;;;;;8.71;85.45;94060.13;5009174;28;20205;-73
2021/12/28 07:18:23;;;;;;;15.65;9.35;;;;;;;9.01;85.10;94061.63;5008778;28;20209;-76
2021/12/28 07:20:50;;;;;;;17.98;10.13;;;;;;;9.29;84.49;94055.66;5009007;28;20627;-74
2021/12/28 07:23:17;;;;;;;15.00;9.38;;;;;;;9.39;83.45;94053.31;5008733;28;20205;-74
2021/12/28 07:25:44;;;;;;;15.10;9.57;;;;;;;9.60;83.51;94064.06;5009049;28;20671;-74
2021/12/28 07:28:11;;;;;;;16.60;9.48;;;;;;;9.67;82.04;94058.91;5008525;28;20718;-74
2021/12/28 07:30:40;;;;;;;13.80;9.07;;;;;;;9.64;81.18;94070.38;5008394;28;20323;-73
2021/12/28 07:33:07;;;;;;;18.20;9.18;;;;;;;9.37;81.13;94065.56;5008786;28;20209;-73
2021/12/28 07:35:34;;;;;;;15.57;7.93;;;;;;;9.15;81.87;94074.84;5009001;28;20212;-73
2021/12/28 07:38:00;;;;;;;19.33;9.85;;;;;;;9.12;82.37;94070.91;5009117;28;20212;-73
2021/12/28 07:40:27;;;;;;;14.63;8.82;;;;;;;9.07;82.69;94068.38;5008690;28;20695;-73
2021/12/28 07:42:54;;;;;;;14.75;9.43;;;;;;;9.26;82.48;94074.09;5008775;28;20190;-73
2021/12/28 07:45:22;;;;;;;22.08;11.57;;;;;;;9.48;82.12;94066.72;5008826;28;20256;-74
2021/12/28 07:47:50;;;;;;;16.45;9.13;;;;;;;9.21;82.52;94060.78;5009019;28;20207;-74
2021/12/28 07:50:19;;;;;;;18.63;7.95;;;;;;;9.32;82.59;94058.44;5007923;28;20240;-74
2021/12/28 07:52:47;;;;;;;16.73;8.88;;;;;;;9.42;82.62;94059.97;5008988;28;20244;-74
2021/12/28 07:55:16;;;;;;;18.17;9.38;;;;;;;9.42;82.25;94062.66;5010706;28;20205;-73
2021/12/28 07:57:43;;;;;;;18.23;10.32;;;;;;;9.19;82.39;94060.31;5011718;28;20704;-74
2021/12/28 08:00:13;;;;;;;17.48;9.55;;;;;;;9.34;82.28;94060.81;5012046;28;20201;-73
2021/12/28 08:02:40;;;;;;;19.40;10.25;;;;;;;9.24;82.64;94073.66;5011804;28;20208;-73
2021/12/28 08:05:08;;;;;;;18.17;9.27;;;;;;;9.05;83.19;94072.53;5011769;28;20727;-73
2021/12/28 08:07:35;;;;;;;15.05;8.57;;;;;;;9.02;83.87;94081.31;5011452;28;20201;-73
2021/12/28 08:10:02;;;;;;;18.42;11.95;;;;;;;8.98;83.56;94070.38;5011659;28;20233;-73
2021/12/28 08:12:29;;;;;;;17.25;11.57;;;;;;;8.73;84.28;94068.69;5011886;28;20690;-73
2021/12/28 08:14:57;;;;;;;12.43;8.45;;;;;;;8.82;84.83;94077.50;5011944;28;20263;-74
2021/12/28 08:17:26;;;;;;;15.88;10.50;;;;;;;8.84;84.53;94065.25;5011990;28;20205;-73
2021/12/28 08:19:53;;;;;;;15.75;9.13;;;;;;;8.85;82.89;94060.66;5011571;28;20201;-72
2021/12/28 08:22:21;;;;;;;13.80;9.38;;;;;;;8.81;83.18;94062.41;5011265;28;20703;-73
2021/12/28 08:24:48;;;;;;;13.50;9.43;;;;;;;8.90;83.19;94063.13;5011410;28;20205;-74
2021/12/28 08:27:15;;;;;;;13.20;8.63;;;;;;;8.94;83.07;94061.34;5011770;28;20204;-74
2021/12/28 08:29:41;;;;;;;17.48;9.27;;;;;;;9.39;82.74;94060.63;5011423;28;20240;-74
2021/12/28 08:32:09;;;;;;;14.13;9.00;;;;;;;9.58;80.78;94067.09;5011364;28;20197;-73
2021/12/28 08:34:35;;;;;;;14.30;8.45;;;;;;;9.59;81.26;94065.16;5011614;28;20220;-73
2021/12/28 08:37:03;;;;;;;13.95;8.43;;;;;;;9.85;79.82;94065.66;5011785;28;20295;-73
2021/12/28 08:39:31;;;;;;;14.98;8.80;;;;;;;10.07;79.05;94063.66;5011764;28;20205;-73
2021/12/28 08:41:58;;;;;;;12.18;8.15;;;;;;;10.28;78.63;94064.34;5011036;28;20236;-73
2021/12/28 08:44:27;;;;;;;10.50;6.55;;;;;;;10.28;76.52;94058.94;5011289;28;20208;-73
2021/12/28 08:46:54;;;;;;;9.57;6.20;;;;;;;10.23;77.33;94062.69;5011157;28;20674;-73
2021/12/28 08:49:21;;;;;;;14.15;7.07;;;;;;;10.51;77.22;94060.06;5011000;28;20204;-73
2021/12/28 08:51:48;;;;;;;9.45;6.80;;;;;;;10.84;75.17;94050.97;5010592;28;20197;-73
2021/12/28 08:54:15;;;;;;;10.15;6.25;;;;;;;10.56;75.17;94046.28;5011018;28;20201;-73
2021/12/28 08:56:43;;;;;;;9.20;6.20;;;;;;;10.54;75.70;94048.53;5011276;28;20216;-73
2021/12/28 08:59:10;;;;;;;12.57;6.97;;;;;;;10.52;76.45;94050.78;5011072;28;20288;-73
2021/12/28 09:01:37;;;;;;;8.52;6.45;;;;;;;10.33;76.51;94042.50;5010544;28;20608;-73
2021/12/28 09:04:04;;;;;;;8.63;7.10;;;;;;;10.60;76.10;94044.47;5010765;28;20205;-73
2021/12/28 09:06:31;;;;;;;11.32;7.30;;;;;;;10.69;76.80;94038.91;5010980;28;20205;-73
2021/12/28 09:08:58;;;;;;;10.55;7.10;;;;;;;11.11;74.61;94039.34;5011387;28;20223;-73
2021/12/28 09:11:25;;;;;;;10.88;7.32;;;;;;;11.57;73.30;94031.69;5010535;28;20236;-73
2021/12/28 09:13:53;;;;;;;10.25;7.25;;;;;;;11.30;73.42;94036.00;5010891;28;20644;-72
2021/12/28 09:16:20;;;;;;;11.55;7.32;;;;;;;11.22;73.31;94039.63;5010872;28;20236;-72
2021/12/28 09:18:47;;;;;;;9.98;7.28;;;;;;;10.56;75.36;94035.44;5010698;28;20237;-73
2021/12/28 09:21:14;;;;;;;8.73;6.28;;;;;;;10.68;75.01;94038.13;5010403;28;20228;-73
2021/12/28 09:23:41;;;;;;;8.23;6.07;;;;;;;10.91;74.43;94034.94;5010155;28;20711;-72
2021/12/28 09:26:08;;;;;;;8.27;5.95;;;;;;;11.29;74.47;94037.94;5010326;28;20197;-73
2021/12/28 09:28:35;;;;;;;9.10;6.82;;;;;;;11.39;74.48;94029.28;5010288;28;20559;-73
2021/12/28 09:31:04;;;;;;;11.90;8.25;;;;;;;11.19;73.66;94034.94;5009373;28;20228;-72
2021/12/28 09:33:31;;;;;;;14.40;9.10;;;;;;;11.06;73.98;94028.78;5010195;28;20212;-72
2021/12/28 09:36:00;;;;;;;12.60;8.82;;;;;;;10.98;74.87;94025.06;5010101;28;20283;-72
2021/12/28 09:38:27;;;;;;;15.60;9.88;;;;;;;10.71;75.34;94030.44;5010094;28;20573;-73
2021/12/28 09:40:54;;;;;;;13.55;10.13;;;;;;;10.43;77.26;94031.19;5010029;28;20233;-71
2021/12/28 09:43:21;;;;;;;15.73;10.82;;;;;;;10.56;76.67;94032.75;5009830;28;20208;-71
2021/12/28 09:45:48;;;;;;;15.18;10.88;;;;;;;10.55;77.08;94017.63;5009823;28;20205;-72
2021/12/28 09:48:16;;;;;;;14.25;11.07;;;;;;;10.55;76.75;94022.25;5010162;28;20672;-73
2021/12/28 09:50:44;;;;;;;13.55;9.38;;;;;;;10.37;76.57;94010.13;5009973;28;20233;-72
2021/12/28 09:53:13;;;;;;;17.90;10.52;;;;;;;10.76;75.52;94013.97;5009813;28;20236;-72
2021/12/28 09:55:40;;;;;;;18.30;9.80;;;;;;;10.66;75.15;94017.94;5009525;28;20197;-72
2021/12/28 09:58:09;;;;;;;23.60;12.65;;;;;;;10.64;75.95;94020.22;5010238;28;20414;-72
2021/12/28 10:00:36;;;;;;;18.95;11.80;;;;;;;10.88;75.12;94020.13;5009957;28;20197;-72
2021/12/28 10:03:04;;;;;;;16.33;11.90;;;;;;;10.84;74.50;94023.88;5009629;28;20284;-73
2021/12/28 10:05:33;;;;;;;15.27;9.23;;;;;;;10.93;74.04;94013.69;5009551;28;20437;-72
2021/12/28 10:08:02;;;;;;;15.40;9.20;;;;;;;10.96;74.52;94018.41;5009948;28;20216;-72
2021/12/28 10:10:31;;;;;;;14.32;9.07;;;;;;;11.23;73.70;94005.97;5009021;28;20711;-72
2021/12/28 10:13:00;;;;;;;14.00;9.65;;;;;;;11.23;73.32;94003.25;5009415;28;20209;-72
2021/12/28 10:15:29;;;;;;;12.60;9.38;;;;;;;11.00;73.59;94005.75;5009671;28;20672;-71
2021/12/28 10:18:00;;;;;;;13.95;9.20;;;;;;;11.08;73.58;94010.22;5009040;28;20204;-72
2021/12/28 10:20:29;;;;;;;17.23;9.70;;;;;;;11.19;73.07;93999.69;5008987;28;20226;-72
2021/12/28 10:22:59;;;;;;;18.38;10.98;;;;;;;11.42;72.95;94002.59;5009186;28;20231;-72
2021/12/28 10:25:28;;;;;;;18.42;11.23;;;;;;;11.81;71.28;94001.69;5008919;28;20236;-72
2021/12/28 10:27:58;;;;;;;19.60;11.52;;;;;;;12.17;70.50;93986.25;5009390;28;20237;-72
2021/12/28 10:30:28;;;;;;;14.88;10.10;;;;;;;12.66;69.45;93990.09;5009720;28;20316;-72
2021/12/28 10:32:57;;;;;;;11.23;7.45;;;;;;;12.49;67.85;93985.06;5008851;28;20208;-72
2021/12/28 10:35:26;;;;;;;12.20;7.60;;;;;;;12.41;68.57;93986.84;5008985;28;20608;-71
2021/12/28 10:37:55;;;;;;;10.98;7.47;;;;;;;12.49;67.92;93986.97;5008751;28;20253;-71
2021/12/28 10:40:27;;;;;;;11.30;8.13;;;;;;;12.46;67.39;93988.47;5009426;28;20615;-71
2021/12/28 10:42:58;;;;;;;10.98;7.15;;;;;;;12.46;67.42;93983.03;5009465;28;20205;-72
2021/12/28 10:45:27;;;;;;;11.88;7.45;;;;;;;12.36;67.66;93989.81;5009070;28;20193;-72
2021/12/28 10:47:55;;;;;;;9.75;6.90;;;;;;;12.49;67.34;93986.97;5008500;28;20208;-72
2021/12/28 10:50:35;;;;;;;9.57;7.15;;;;;;;12.49;67.33;93992.41;5008689;28;20236;-71
2021/12/28 10:53:08;;;;;;;11.18;7.32;;;;;;;12.27;67.60;93985.72;5009001;28;20331;-72
2021/12/28 10:55:36;;;;;;;9.07;6.75;;;;;;;12.16;68.18;93995.56;5009322;28;20211;-72
2021/12/28 10:58:04;;;;;;;8.57;6.53;;;;;;;11.80;68.96;93996.63;5009079;28;20220;-71
2021/12/28 11:00:34;;;;;;;10.30;7.13;;;;;;;11.88;69.15;93993.75;5009807;28;20209;-72
2021/12/28 11:03:26;;;;;;;9.80;6.60;;;;;;;11.78;69.52;93983.41;5009783;28;20209;-73
2021/12/28 11:05:55;;;;;;;10.93;6.65;;;;;;;11.99;68.82;93975.00;5009132;28;20237;-72
2021/12/28 11:08:24;;;;;;;11.02;7.10;;;;;;;11.72;69.42;93973.94;5009262;28;20251;-72
2021/12/28 11:10:54;;;;;;;10.75;7.47;;;;;;;11.49;70.32;93972.94;5008792;28;20700;-72
2021/12/28 11:13:23;;;;;;;10.32;8.00;;;;;;;11.38;70.85;93972.69;5009129;28;20197;-72
2021/12/28 11:15:50;;;;;;;10.32;7.43;;;;;;;11.61;70.44;93965.53;5009498;28;20714;-72
2021/12/28 11:18:21;;;;;;;13.38;7.72;;;;;;;11.85;69.98;93970.03;5009008;28;20201;-71
2021/12/28 11:20:48;;;;;;;12.38;7.75;;;;;;;12.56;67.12;93965.41;5009108;28;20213;-72
2021/12/28 11:23:18;;;;;;;9.27;7.07;;;;;;;12.75;66.80;93962.69;5008758;28;20208;-72
2021/12/28 11:25:45;;;;;;;11.95;7.55;;;;;;;12.41;67.26;93967.81;5008865;28;20668;-72
2021/12/28 11:28:16;;;;;;;11.02;7.72;;;;;;;12.39;67.11;93966.59;5008300;28;20255;-71
2021/12/28 11:31:05;;;;;;;11.68;8.00;;;;;;;12.14;68.43;93965.25;5011927;28;20247;-72
2021/12/28 11:33:48;;;;;;;11.23;7.47;;;;;;;12.15;67.68;93964.13;5012777;28;20201;-72
2021/12/28 11:36:17;;;;;;;9.57;7.75;;;;;;;11.76;68.37;93953.13;5012651;28;20224;-71